createdAt,value
2023-04-18T00:01:47.550Z,19.40
2023-04-18T00:04:20.685Z,16.00
2023-04-18T00:06:54.942Z,14.70
2023-04-18T00:09:27.692Z,13.50
2023-04-18T00:12:01.936Z,16.20
2023-04-18T00:14:37.753Z,17.10
2023-04-18T00:17:11.219Z,18.30
2023-04-18T00:20:08.291Z,13.20
2023-04-18T00:22:43.030Z,13.20
2023-04-18T00:25:16.368Z,13.90
2023-04-18T00:27:48.950Z,14.80
2023-04-18T00:30:23.578Z,15.30
2023-04-18T00:32:56.122Z,15.20
2023-04-18T00:35:30.310Z,16.70
2023-04-18T00:38:02.898Z,18.10
2023-04-18T00:40:35.782Z,16.70
2023-04-18T00:43:14.344Z,17.60
2023-04-18T00:45:49.699Z,14.60
2023-04-18T00:48:22.762Z,13.00
2023-04-18T00:50:55.429Z,15.20
2023-04-18T00:53:28.485Z,13.10
2023-04-18T00:56:01.597Z,16.10
2023-04-18T00:58:36.562Z,15.00
2023-04-18T01:01:46.204Z,15.40
2023-04-18T01:04:19.252Z,17.00
2023-04-18T01:06:53.657Z,16.90
2023-04-18T01:09:27.881Z,20.30
2023-04-18T01:14:31.620Z,19.50
2023-04-18T01:17:04.333Z,20.60
2023-04-18T01:19:38.170Z,18.30
2023-04-18T01:22:15.230Z,20.40
2023-04-18T01:24:48.131Z,20.10
2023-04-18T01:27:24.659Z,30.90
2023-04-18T01:29:58.760Z,24.20
2023-04-18T01:32:35.413Z,26.60
2023-04-18T01:35:09.720Z,23.50
2023-04-18T01:37:43.141Z,19.10
2023-04-18T01:40:16.501Z,18.90
2023-04-18T01:42:49.222Z,19.20
2023-04-18T01:45:22.916Z,18.70
2023-04-18T01:47:55.447Z,20.30
2023-04-18T01:50:28.726Z,20.20
2023-04-18T01:53:01.677Z,21.60
2023-04-18T01:55:34.894Z,25.20
2023-04-18T01:58:10.642Z,18.70
2023-04-18T02:00:43.531Z,20.20
2023-04-18T02:03:18.319Z,20.20
2023-04-18T02:05:51.576Z,21.90
2023-04-18T02:08:24.420Z,18.60
2023-04-18T02:10:57.231Z,18.30
2023-04-18T02:13:30.120Z,19.20
2023-04-18T02:16:03.464Z,20.70
2023-04-18T02:18:36.142Z,18.30
2023-04-18T02:21:10.079Z,20.30
2023-04-18T02:23:47.046Z,19.60
2023-04-18T02:26:19.883Z,23.60
2023-04-18T02:28:53.651Z,20.10
2023-04-18T02:31:29.149Z,20.60
2023-04-18T02:34:01.894Z,18.50
2023-04-18T02:36:37.343Z,19.80
2023-04-18T02:39:10.210Z,21.90
2023-04-18T02:41:43.043Z,21.60
2023-04-18T02:44:15.791Z,21.20
2023-04-18T02:46:49.421Z,19.60
2023-04-18T02:49:23.033Z,22.20
2023-04-18T02:51:58.196Z,19.60
2023-04-18T02:54:30.883Z,20.90
2023-04-18T02:57:09.298Z,20.90
2023-04-18T02:59:55.940Z,23.70
2023-04-18T03:02:28.765Z,23.00
2023-04-18T03:05:04.778Z,20.60
2023-04-18T03:07:39.391Z,19.00
2023-04-18T03:10:13.729Z,20.00
2023-04-18T03:12:48.178Z,18.50
2023-04-18T03:15:21.652Z,18.90
2023-04-18T03:17:55.191Z,20.90
2023-04-18T03:20:29.311Z,18.10
2023-04-18T03:23:02.730Z,21.00
2023-04-18T03:25:35.724Z,19.70
2023-04-18T03:30:40.680Z,17.70
2023-04-18T03:33:17.898Z,21.50
2023-04-18T03:35:52.791Z,20.30
2023-04-18T03:38:25.337Z,19.50
2023-04-18T03:40:59.183Z,16.50
2023-04-18T03:43:37.259Z,19.10
2023-04-18T03:46:10.089Z,22.00
2023-04-18T03:48:44.245Z,18.80
2023-04-18T03:51:18.780Z,21.10
2023-04-18T03:53:52.584Z,18.40
2023-04-18T03:56:25.553Z,19.40
2023-04-18T03:58:59.203Z,20.60
2023-04-18T04:01:32.351Z,18.00
2023-04-18T04:04:05.834Z,19.10
2023-04-18T04:06:38.639Z,21.40
2023-04-18T04:09:11.564Z,20.30
2023-04-18T04:11:46.533Z,24.60
2023-04-18T04:14:19.805Z,19.50
2023-04-18T04:16:55.605Z,18.30
2023-04-18T04:19:28.494Z,32.10
2023-04-18T04:22:11.720Z,21.00
2023-04-18T04:24:47.136Z,23.60
2023-04-18T04:27:21.505Z,23.20
2023-04-18T04:29:54.500Z,22.80
2023-04-18T04:32:28.788Z,20.30
2023-04-18T04:35:01.463Z,21.70
2023-04-18T04:37:35.660Z,23.40
2023-04-18T04:40:29.334Z,25.90
2023-04-18T04:43:13.067Z,22.40
2023-04-18T04:45:51.828Z,25.20
2023-04-18T04:48:28.255Z,26.40
2023-04-18T04:51:02.940Z,21.00
2023-04-18T04:53:35.677Z,22.90
2023-04-18T04:56:09.807Z,22.50
2023-04-18T04:58:45.529Z,22.80
2023-04-18T05:01:29.100Z,24.90
2023-04-18T05:04:01.904Z,22.80
2023-04-18T05:06:34.836Z,24.40
2023-04-18T05:09:07.662Z,20.10
2023-04-18T05:11:41.644Z,24.00
2023-04-18T05:14:15.133Z,23.50
2023-04-18T05:16:48.828Z,22.80
2023-04-18T05:19:21.621Z,20.00
2023-04-18T05:21:54.509Z,22.10
2023-04-18T05:24:27.260Z,23.40
2023-04-18T05:26:59.767Z,21.90
2023-04-18T05:29:32.380Z,26.00
2023-04-18T05:32:04.990Z,23.20
2023-04-18T05:34:38.868Z,21.50
2023-04-18T05:37:11.650Z,22.00
2023-04-18T05:39:45.200Z,21.20
2023-04-18T05:42:18.822Z,23.90
2023-04-18T05:44:51.807Z,22.00
2023-04-18T05:47:27.190Z,25.00
2023-04-18T05:49:59.865Z,21.00
2023-04-18T05:52:32.763Z,21.90
2023-04-18T05:55:07.122Z,21.50
2023-04-18T05:57:42.004Z,18.80
2023-04-18T06:00:17.925Z,22.00
2023-04-18T06:02:51.546Z,21.10
2023-04-18T06:05:24.942Z,21.60
2023-04-18T06:10:30.127Z,23.80
2023-04-18T06:15:33.613Z,19.80
2023-04-18T06:18:06.397Z,23.20
2023-04-18T06:20:39.138Z,20.10
2023-04-18T06:23:11.887Z,23.10
2023-04-18T06:25:47.125Z,22.60
2023-04-18T06:28:19.703Z,24.20
2023-04-18T06:30:52.454Z,19.10
2023-04-18T06:33:25.925Z,17.10
2023-04-18T06:35:59.542Z,17.30
2023-04-18T06:38:32.290Z,20.70
2023-04-18T06:41:06.593Z,20.30
2023-04-18T06:43:42.569Z,19.40
2023-04-18T06:46:22.002Z,18.50
2023-04-18T06:48:55.067Z,18.00
2023-04-18T06:51:27.743Z,18.00
2023-04-18T06:54:00.250Z,18.40
2023-04-18T06:56:36.238Z,18.00
2023-04-18T06:59:09.440Z,20.00
2023-04-18T07:01:44.914Z,17.00
2023-04-18T07:04:17.804Z,18.70
2023-04-18T07:06:51.006Z,17.50
2023-04-18T07:09:24.032Z,16.80
2023-04-18T07:11:57.291Z,16.50
2023-04-18T07:14:31.239Z,15.30
2023-04-18T07:17:05.611Z,16.00
2023-04-18T07:19:38.689Z,15.30
2023-04-18T07:22:11.498Z,14.50
2023-04-18T07:24:44.626Z,16.20
2023-04-18T07:27:18.888Z,16.40
2023-04-18T07:29:51.469Z,14.50
2023-04-18T07:32:24.204Z,11.70
2023-04-18T07:34:57.658Z,13.60
2023-04-18T07:40:01.451Z,14.60
2023-04-18T07:42:35.233Z,13.20
2023-04-18T07:45:11.055Z,11.60
2023-04-18T07:47:44.713Z,10.60
2023-04-18T07:50:17.579Z,14.30
2023-04-18T07:52:50.345Z,12.40
2023-04-18T07:55:23.249Z,13.80
2023-04-18T07:57:56.359Z,11.20
2023-04-18T08:00:33.082Z,12.50
2023-04-18T08:03:06.032Z,11.10
2023-04-18T08:05:38.825Z,11.00
2023-04-18T08:08:13.018Z,12.30
2023-04-18T08:10:45.604Z,13.20
2023-04-18T08:13:18.530Z,9.90
2023-04-18T08:15:51.812Z,11.10
2023-04-18T08:18:24.553Z,11.40
2023-04-18T08:20:57.364Z,12.10
2023-04-18T08:23:30.234Z,11.90
2023-04-18T08:26:02.820Z,12.30
2023-04-18T08:28:37.364Z,10.20
2023-04-18T08:31:13.128Z,11.70
2023-04-18T08:33:46.344Z,10.80
2023-04-18T08:36:19.084Z,11.40
2023-04-18T08:38:51.905Z,10.30
2023-04-18T08:41:26.158Z,12.10
2023-04-18T08:43:59.132Z,9.80
2023-04-18T08:46:37.535Z,9.50
2023-04-18T08:49:11.996Z,9.80
2023-04-18T08:51:49.211Z,9.50
2023-04-18T08:54:22.842Z,13.70
2023-04-18T08:59:43.744Z,8.50
2023-04-18T09:02:17.142Z,11.30
2023-04-18T09:04:53.133Z,11.10
2023-04-18T09:07:32.467Z,8.70
2023-04-18T09:10:05.544Z,8.50
2023-04-18T09:12:50.664Z,9.10
2023-04-18T09:15:27.536Z,8.90
2023-04-18T09:18:03.378Z,9.80
2023-04-18T09:20:48.079Z,8.00
2023-04-18T09:23:26.923Z,10.30
2023-04-18T09:26:01.665Z,7.70
2023-04-18T09:28:35.458Z,7.30
2023-04-18T09:31:15.987Z,9.50
2023-04-18T09:33:57.182Z,10.10
2023-04-18T09:36:31.825Z,9.90
2023-04-18T09:39:05.092Z,8.30
2023-04-18T09:41:38.099Z,7.00
2023-04-18T09:44:15.930Z,8.00
2023-04-18T09:46:49.979Z,8.90
2023-04-18T09:49:23.207Z,7.10
2023-04-18T09:54:29.934Z,7.30
2023-04-18T09:57:07.561Z,7.00
2023-04-18T09:59:52.721Z,6.60
2023-04-18T10:02:27.021Z,7.50
2023-04-18T10:05:01.201Z,7.40
2023-04-18T10:07:35.227Z,7.40
2023-04-18T10:10:09.140Z,4.70
2023-04-18T10:12:43.012Z,6.70
2023-04-18T10:15:18.059Z,5.50
2023-04-18T10:20:32.325Z,5.20
2023-04-18T10:25:55.996Z,7.30
2023-04-18T10:28:28.969Z,4.80
2023-04-18T10:31:06.012Z,6.50
2023-04-18T10:33:42.856Z,5.90
2023-04-18T10:36:20.903Z,4.60
2023-04-18T10:38:55.150Z,4.80
2023-04-18T10:41:30.861Z,5.70
2023-04-18T10:44:24.259Z,5.70
2023-04-18T10:47:23.495Z,7.20
2023-04-18T10:50:06.771Z,6.70
2023-04-18T10:52:42.284Z,6.10
2023-04-18T10:55:26.224Z,6.50
2023-04-18T10:58:01.202Z,5.70
2023-04-18T11:00:34.802Z,6.00
2023-04-18T11:03:07.963Z,4.80
2023-04-18T11:05:41.313Z,5.20
2023-04-18T11:08:26.924Z,5.50
2023-04-18T11:11:07.274Z,6.10
2023-04-18T11:13:39.917Z,4.30
2023-04-18T11:16:27.559Z,5.50
2023-04-18T11:19:01.051Z,6.70
2023-04-18T11:21:34.834Z,5.30
2023-04-18T11:24:08.666Z,4.80
2023-04-18T11:26:41.765Z,5.20
2023-04-18T11:29:14.417Z,4.70
2023-04-18T11:31:56.824Z,5.70
2023-04-18T11:34:34.799Z,5.90
2023-04-18T11:37:09.802Z,7.40
2023-04-18T11:39:46.475Z,6.30
2023-04-18T11:42:19.198Z,8.20
2023-04-18T11:44:51.728Z,7.40
2023-04-18T11:47:33.409Z,5.30
2023-04-18T11:50:08.236Z,5.60
2023-04-18T11:52:41.655Z,4.70
2023-04-18T11:55:22.188Z,5.30
2023-04-18T11:57:56.129Z,5.10
2023-04-18T12:00:37.973Z,5.30
2023-04-18T12:03:17.422Z,4.10
2023-04-18T12:05:51.098Z,5.20
2023-04-18T12:08:24.773Z,5.00
2023-04-18T12:10:57.872Z,6.00
2023-04-18T12:16:08.152Z,4.00
2023-04-18T12:18:43.541Z,4.80
2023-04-18T12:21:19.043Z,5.70
2023-04-18T12:23:52.284Z,5.60
2023-04-18T12:28:56.821Z,5.90
2023-04-18T12:31:29.535Z,4.60
2023-04-18T12:34:07.320Z,8.10
2023-04-18T12:36:39.752Z,7.70
2023-04-18T12:39:12.399Z,5.20
2023-04-18T12:41:48.909Z,4.70
2023-04-18T12:44:25.042Z,9.20
2023-04-18T12:46:57.722Z,14.70
2023-04-18T12:49:30.439Z,8.30
2023-04-18T12:52:02.943Z,4.60
2023-04-18T12:54:37.820Z,5.40
2023-04-18T12:57:10.617Z,5.30
2023-04-18T12:59:43.994Z,5.60
2023-04-18T13:02:16.936Z,5.60
2023-04-18T13:04:50.050Z,7.30
2023-04-18T13:07:22.879Z,4.50
2023-04-18T13:09:55.450Z,4.40
2023-04-18T13:12:29.736Z,5.60
2023-04-18T13:15:02.761Z,10.50
2023-04-18T13:17:36.943Z,5.20
2023-04-18T13:20:12.735Z,4.90
2023-04-18T13:22:46.625Z,11.00
2023-04-18T13:25:19.445Z,5.20
2023-04-18T13:27:52.371Z,5.10
2023-04-18T13:30:24.927Z,6.20
2023-04-18T13:33:02.588Z,6.30
2023-04-18T13:35:39.797Z,5.10
2023-04-18T13:38:12.732Z,4.30
2023-04-18T13:40:45.406Z,4.90
2023-04-18T13:43:18.690Z,5.50
2023-04-18T13:45:51.792Z,4.70
2023-04-18T13:50:55.860Z,5.10
2023-04-18T13:53:30.630Z,4.40
2023-04-18T13:56:04.574Z,5.10
2023-04-18T13:58:37.080Z,5.10
2023-04-18T14:01:12.799Z,8.40
2023-04-18T14:03:47.511Z,6.00
2023-04-18T14:06:23.207Z,4.90
2023-04-18T14:08:56.249Z,8.40
2023-04-18T14:11:29.364Z,6.90
2023-04-18T14:14:02.992Z,5.50
2023-04-18T14:16:36.349Z,5.30
2023-04-18T14:21:39.855Z,6.40
2023-04-18T14:24:15.038Z,5.80
2023-04-18T14:26:49.944Z,6.10
2023-04-18T14:29:22.970Z,6.20
2023-04-18T14:31:57.092Z,5.50
2023-04-18T14:34:31.199Z,7.10
2023-04-18T14:37:06.710Z,5.40
2023-04-18T14:42:11.283Z,6.20
2023-04-18T14:44:44.401Z,16.00
2023-04-18T14:47:17.241Z,11.00
2023-04-18T14:49:50.914Z,8.20
2023-04-18T14:52:23.554Z,7.80
2023-04-18T14:54:56.464Z,10.00
2023-04-18T14:57:32.070Z,9.00
2023-04-18T15:00:05.952Z,6.60
2023-04-18T15:02:39.312Z,8.30
2023-04-18T15:05:14.943Z,9.60
2023-04-18T15:07:48.244Z,10.00
2023-04-18T15:10:23.049Z,7.50
2023-04-18T15:12:55.957Z,9.10
2023-04-18T15:15:28.566Z,9.50
2023-04-18T15:18:01.301Z,8.40
2023-04-18T15:20:34.761Z,8.10
2023-04-18T15:25:38.600Z,5.90
2023-04-18T15:28:11.302Z,7.10
2023-04-18T15:30:45.733Z,5.70
2023-04-18T15:33:20.927Z,6.40
2023-04-18T15:35:54.286Z,8.20
2023-04-18T15:38:26.864Z,6.10
2023-04-18T15:40:59.524Z,7.00
2023-04-18T15:43:33.126Z,9.10
2023-04-18T15:46:07.699Z,7.50
2023-04-18T15:48:41.116Z,7.90
2023-04-18T15:51:13.679Z,6.90
2023-04-18T15:53:50.558Z,5.60
2023-04-18T15:56:23.882Z,6.70
2023-04-18T15:58:59.362Z,7.60
2023-04-18T16:01:34.981Z,7.50
2023-04-18T16:04:08.181Z,6.50
2023-04-18T16:06:41.150Z,7.80
2023-04-18T16:09:14.851Z,8.70
2023-04-18T16:11:48.971Z,7.50
2023-04-18T16:14:21.880Z,5.50
2023-04-18T16:19:28.706Z,6.30
2023-04-18T16:22:01.683Z,7.40
2023-04-18T16:24:34.703Z,6.20
2023-04-18T16:27:07.678Z,10.20
2023-04-18T16:29:40.380Z,6.80
2023-04-18T16:32:13.265Z,8.40
2023-04-18T16:34:50.242Z,7.20
2023-04-18T16:37:25.162Z,11.90
2023-04-18T16:39:58.325Z,8.10
2023-04-18T16:42:31.019Z,12.40
2023-04-18T16:45:05.444Z,9.70
2023-04-18T16:47:38.174Z,11.00
2023-04-18T16:50:12.615Z,10.90
2023-04-18T16:52:46.035Z,10.50
2023-04-18T16:57:49.544Z,9.90
2023-04-18T17:00:22.811Z,10.10
2023-04-18T17:02:56.511Z,9.90
2023-04-18T17:05:29.212Z,11.20
2023-04-18T17:08:04.618Z,12.70
2023-04-18T17:10:37.535Z,13.30
2023-04-18T17:13:11.025Z,12.50
2023-04-18T17:15:48.158Z,11.70
2023-04-18T17:18:21.352Z,13.40
2023-04-18T17:20:54.405Z,14.00
2023-04-18T17:23:27.214Z,14.70
2023-04-18T17:26:00.051Z,12.00
2023-04-18T17:28:35.622Z,12.90
2023-04-18T17:31:09.135Z,11.30
2023-04-18T17:33:41.790Z,16.00
2023-04-18T17:36:15.222Z,12.00
2023-04-18T17:38:49.389Z,11.40
2023-04-18T17:41:22.919Z,11.60
2023-04-18T17:43:55.650Z,11.50
2023-04-18T17:46:28.425Z,14.30
2023-04-18T17:49:02.067Z,14.80
2023-04-18T17:51:35.019Z,16.90
2023-04-18T17:54:11.121Z,12.40
2023-04-18T17:56:44.750Z,12.20
2023-04-18T17:59:17.904Z,15.20
2023-04-18T18:01:51.342Z,14.50
2023-04-18T18:04:26.533Z,14.00
2023-04-18T18:07:00.982Z,13.50
2023-04-18T18:09:34.116Z,13.20
2023-04-18T18:12:10.133Z,18.30
2023-04-18T18:14:43.113Z,15.90
2023-04-18T18:17:15.841Z,15.60
2023-04-18T18:19:50.441Z,17.20
2023-04-18T18:22:25.172Z,16.00
2023-04-18T18:24:58.622Z,14.80
2023-04-18T18:27:32.434Z,14.80
2023-04-18T18:30:06.085Z,16.40
2023-04-18T18:35:13.198Z,13.80
2023-04-18T18:37:46.331Z,16.70
2023-04-18T18:40:19.615Z,16.10
2023-04-18T18:42:54.939Z,15.20
2023-04-18T18:45:28.117Z,13.70
2023-04-18T18:48:01.985Z,14.10
2023-04-18T18:50:38.148Z,12.70
2023-04-18T18:53:18.273Z,11.90
2023-04-18T18:55:51.717Z,12.20
2023-04-18T18:58:25.170Z,9.70
2023-04-18T19:01:03.804Z,10.60
2023-04-18T19:03:37.259Z,11.20
2023-04-18T19:06:10.258Z,11.80
2023-04-18T19:08:43.470Z,13.80
2023-04-18T19:11:16.720Z,12.10
2023-04-18T19:13:53.122Z,12.00
2023-04-18T19:16:26.324Z,14.90
2023-04-18T19:18:59.262Z,14.60
2023-04-18T19:21:31.852Z,14.20
2023-04-18T19:24:06.167Z,15.60
2023-04-18T19:26:38.771Z,17.20
2023-04-18T19:29:15.442Z,16.90
2023-04-18T19:31:49.114Z,26.30
2023-04-18T19:34:23.856Z,26.70
2023-04-18T19:36:57.490Z,20.10
2023-04-18T19:42:05.428Z,21.10
2023-04-18T19:44:38.362Z,24.70
2023-04-18T19:47:13.798Z,22.00
2023-04-18T19:49:47.320Z,19.40
2023-04-18T19:52:19.848Z,22.80
2023-04-18T19:54:54.233Z,22.80
2023-04-18T19:57:29.586Z,19.80
2023-04-18T20:00:02.215Z,25.90
2023-04-18T20:02:45.211Z,18.50
2023-04-18T20:05:19.064Z,33.10
2023-04-18T20:07:51.997Z,26.50
2023-04-18T20:10:25.564Z,23.10
2023-04-18T20:12:58.151Z,20.90
2023-04-18T20:15:33.035Z,20.40
2023-04-18T20:18:07.457Z,19.20
2023-04-18T20:20:40.074Z,21.40
2023-04-18T20:23:13.499Z,16.00
2023-04-18T20:25:49.898Z,23.40
2023-04-18T20:28:22.518Z,22.10
2023-04-18T20:30:55.518Z,18.70
2023-04-18T20:33:29.665Z,21.10
2023-04-18T20:36:02.587Z,18.60
2023-04-18T20:38:35.318Z,20.40
2023-04-18T20:41:19.212Z,19.60
2023-04-18T20:43:54.046Z,17.20
2023-04-18T20:46:26.693Z,18.50
2023-04-18T20:48:59.529Z,18.90
2023-04-18T20:51:32.493Z,17.20
2023-04-18T20:56:37.707Z,19.00
2023-04-18T20:59:10.472Z,20.20
2023-04-18T21:01:43.589Z,19.20
2023-04-18T21:04:16.791Z,18.50
2023-04-18T21:06:50.382Z,19.20
2023-04-18T21:09:23.482Z,18.60
2023-04-18T21:11:58.404Z,19.90
2023-04-18T21:14:31.212Z,19.90
2023-04-18T21:17:04.278Z,19.60
2023-04-18T21:19:36.858Z,18.80
2023-04-18T21:22:09.709Z,26.80
2023-04-18T21:24:42.528Z,21.20
2023-04-18T21:27:16.357Z,21.90
2023-04-18T21:29:49.296Z,21.60
2023-04-18T21:32:22.667Z,20.40
2023-04-18T21:34:56.698Z,20.10
2023-04-18T21:37:29.314Z,22.40
2023-04-18T21:40:01.856Z,23.40
2023-04-18T21:42:35.566Z,23.00
2023-04-18T21:45:10.618Z,22.20
2023-04-18T21:47:44.250Z,22.30
2023-04-18T21:50:17.019Z,22.30
2023-04-18T21:52:49.639Z,22.80
2023-04-18T21:55:22.357Z,22.30
2023-04-18T21:57:55.870Z,21.50
2023-04-18T22:02:59.578Z,22.30
2023-04-18T22:05:33.801Z,21.40
2023-04-18T22:08:06.779Z,23.90
2023-04-18T22:10:40.321Z,24.80
2023-04-18T22:15:44.738Z,23.20
2023-04-18T22:18:17.570Z,23.00
2023-04-18T22:20:50.138Z,23.00
2023-04-18T22:23:22.733Z,22.00
2023-04-18T22:25:55.270Z,25.10
2023-04-18T22:28:29.137Z,21.10
2023-04-18T22:31:01.752Z,23.50
2023-04-18T22:33:34.549Z,25.70
2023-04-18T22:36:10.204Z,24.60
2023-04-18T22:38:46.354Z,23.40
2023-04-18T22:41:19.369Z,25.10
2023-04-18T22:43:51.749Z,25.10
2023-04-18T22:46:24.419Z,27.00
2023-04-18T22:48:57.325Z,24.10
2023-04-18T22:51:30.729Z,27.30
2023-04-18T22:54:06.508Z,28.10
2023-04-18T22:56:39.042Z,26.60
2023-04-18T23:01:44.437Z,23.90
2023-04-18T23:04:17.361Z,25.70
2023-04-18T23:06:50.327Z,25.50
2023-04-18T23:09:23.103Z,25.90
2023-04-18T23:11:56.171Z,24.60
2023-04-18T23:14:30.447Z,25.20
2023-04-18T23:17:03.524Z,25.40
2023-04-18T23:19:36.203Z,27.80
2023-04-18T23:22:08.895Z,24.50
2023-04-18T23:24:41.798Z,25.10
2023-04-18T23:27:14.609Z,25.50
2023-04-18T23:29:50.492Z,27.50
2023-04-18T23:32:23.420Z,27.70
2023-04-18T23:34:56.159Z,28.30
2023-04-18T23:37:28.925Z,26.70
2023-04-18T23:40:07.069Z,27.00
2023-04-18T23:42:39.842Z,25.30
2023-04-18T23:45:13.477Z,26.60
2023-04-18T23:47:46.395Z,28.50
2023-04-18T23:50:19.102Z,25.90
2023-04-18T23:52:51.896Z,26.80
2023-04-18T23:55:24.971Z,27.00
2023-04-18T23:57:57.758Z,25.80
